sensor_id;sensor_type;location;lat;lon;timestamp;P1;durP1;ratioP1;P2;durP2;ratioP2
32786;SDS011;19139;49.372;8.580;2023-09-18T00:01:12;3.23;;;2.93;;
32786;SDS011;19139;49.372;8.580;2023-09-18T00:03:38;4.53;;;3.30;;
32786;SDS011;19139;49.372;8.580;2023-09-18T00:06:05;4.50;;;3.30;;
32786;SDS011;19139;49.372;8.580;2023-09-18T00:08:32;3.53;;;2.50;;
32786;SDS011;19139;49.372;8.580;2023-09-18T00:10:59;3.90;;;2.83;;
32786;SDS011;19139;49.372;8.580;2023-09-18T00:13:27;3.50;;;3.00;;
32786;SDS011;19139;49.372;8.580;2023-09-18T00:15:54;4.17;;;3.07;;
32786;SDS011;19139;49.372;8.580;2023-09-18T00:18:21;3.77;;;3.37;;
32786;SDS011;19139;49.372;8.580;2023-09-18T00:20:49;3.20;;;2.90;;
32786;SDS011;19139;49.372;8.580;2023-09-18T00:23:18;4.07;;;3.27;;
32786;SDS011;19139;49.372;8.580;2023-09-18T00:25:45;4.63;;;3.50;;
32786;SDS011;19139;49.372;8.580;2023-09-18T00:28:11;4.10;;;2.90;;
32786;SDS011;19139;49.372;8.580;2023-09-18T00:30:39;3.87;;;3.10;;
32786;SDS011;19139;49.372;8.580;2023-09-18T00:33:12;2.90;;;2.60;;
32786;SDS011;19139;49.372;8.580;2023-09-18T00:35:39;3.37;;;2.80;;
32786;SDS011;19139;49.372;8.580;2023-09-18T00:38:05;3.67;;;3.17;;
32786;SDS011;19139;49.372;8.580;2023-09-18T00:40:33;3.37;;;3.07;;
32786;SDS011;19139;49.372;8.580;2023-09-18T00:43:00;4.87;;;3.13;;
32786;SDS011;19139;49.372;8.580;2023-09-18T00:45:27;4.90;;;3.03;;
32786;SDS011;19139;49.372;8.580;2023-09-18T00:47:53;4.17;;;3.50;;
32786;SDS011;19139;49.372;8.580;2023-09-18T00:50:20;3.37;;;3.07;;
32786;SDS011;19139;49.372;8.580;2023-09-18T00:52:48;4.37;;;3.30;;
32786;SDS011;19139;49.372;8.580;2023-09-18T00:55:16;4.40;;;3.20;;
32786;SDS011;19139;49.372;8.580;2023-09-18T00:57:43;4.33;;;3.00;;
32786;SDS011;19139;49.372;8.580;2023-09-18T01:00:11;3.80;;;3.43;;
32786;SDS011;19139;49.372;8.580;2023-09-18T01:02:43;3.20;;;2.90;;
32786;SDS011;19139;49.372;8.580;2023-09-18T01:05:11;3.30;;;2.80;;
32786;SDS011;19139;49.372;8.580;2023-09-18T01:07:38;3.57;;;2.90;;
32786;SDS011;19139;49.372;8.580;2023-09-18T01:10:05;5.00;;;3.03;;
32786;SDS011;19139;49.372;8.580;2023-09-18T01:15:30;4.47;;;3.10;;
32786;SDS011;19139;49.372;8.580;2023-09-18T01:18:01;4.33;;;3.13;;
32786;SDS011;19139;49.372;8.580;2023-09-18T01:20:29;4.40;;;3.53;;
32786;SDS011;19139;49.372;8.580;2023-09-18T01:22:56;4.07;;;3.67;;
32786;SDS011;19139;49.372;8.580;2023-09-18T01:25:23;5.27;;;3.03;;
32786;SDS011;19139;49.372;8.580;2023-09-18T01:27:49;3.83;;;3.20;;
32786;SDS011;19139;49.372;8.580;2023-09-18T01:30:17;3.83;;;3.43;;
32786;SDS011;19139;49.372;8.580;2023-09-18T01:32:44;5.17;;;3.60;;
32786;SDS011;19139;49.372;8.580;2023-09-18T01:35:13;6.43;;;3.23;;
32786;SDS011;19139;49.372;8.580;2023-09-18T01:37:41;3.40;;;2.87;;
32786;SDS011;19139;49.372;8.580;2023-09-18T01:40:10;3.77;;;3.47;;
32786;SDS011;19139;49.372;8.580;2023-09-18T01:42:37;3.13;;;2.70;;
32786;SDS011;19139;49.372;8.580;2023-09-18T01:45:05;4.07;;;3.20;;
32786;SDS011;19139;49.372;8.580;2023-09-18T01:47:32;5.47;;;3.40;;
32786;SDS011;19139;49.372;8.580;2023-09-18T01:50:02;6.90;;;3.37;;
32786;SDS011;19139;49.372;8.580;2023-09-18T01:52:33;5.53;;;3.20;;
32786;SDS011;19139;49.372;8.580;2023-09-18T01:55:03;3.67;;;3.03;;
32786;SDS011;19139;49.372;8.580;2023-09-18T01:57:31;3.60;;;3.30;;
32786;SDS011;19139;49.372;8.580;2023-09-18T01:59:57;3.97;;;3.27;;
32786;SDS011;19139;49.372;8.580;2023-09-18T02:02:25;3.87;;;3.50;;
32786;SDS011;19139;49.372;8.580;2023-09-18T02:05:11;3.90;;;3.33;;
32786;SDS011;19139;49.372;8.580;2023-09-18T02:07:38;3.50;;;3.20;;
32786;SDS011;19139;49.372;8.580;2023-09-18T02:10:05;3.40;;;3.10;;
32786;SDS011;19139;49.372;8.580;2023-09-18T02:12:33;3.70;;;3.40;;
32786;SDS011;19139;49.372;8.580;2023-09-18T02:14:59;3.43;;;3.13;;
32786;SDS011;19139;49.372;8.580;2023-09-18T02:17:30;3.40;;;3.07;;
32786;SDS011;19139;49.372;8.580;2023-09-18T02:19:57;3.13;;;2.80;;
32786;SDS011;19139;49.372;8.580;2023-09-18T02:22:24;3.53;;;2.90;;
32786;SDS011;19139;49.372;8.580;2023-09-18T02:24:51;4.03;;;3.53;;
32786;SDS011;19139;49.372;8.580;2023-09-18T02:27:17;3.33;;;3.03;;
32786;SDS011;19139;49.372;8.580;2023-09-18T02:29:44;3.37;;;3.07;;
32786;SDS011;19139;49.372;8.580;2023-09-18T02:32:11;4.03;;;3.27;;
32786;SDS011;19139;49.372;8.580;2023-09-18T02:34:38;4.17;;;2.80;;
32786;SDS011;19139;49.372;8.580;2023-09-18T02:37:05;4.30;;;3.00;;
32786;SDS011;19139;49.372;8.580;2023-09-18T02:39:31;3.83;;;3.30;;
32786;SDS011;19139;49.372;8.580;2023-09-18T02:41:58;3.07;;;2.70;;
32786;SDS011;19139;49.372;8.580;2023-09-18T02:44:25;3.30;;;3.00;;
32786;SDS011;19139;49.372;8.580;2023-09-18T02:46:53;2.90;;;2.60;;
32786;SDS011;19139;49.372;8.580;2023-09-18T02:49:20;3.60;;;3.30;;
32786;SDS011;19139;49.372;8.580;2023-09-18T02:51:46;3.13;;;2.83;;
32786;SDS011;19139;49.372;8.580;2023-09-18T02:54:13;3.70;;;3.03;;
32786;SDS011;19139;49.372;8.580;2023-09-18T02:56:40;3.97;;;3.37;;
32786;SDS011;19139;49.372;8.580;2023-09-18T02:59:06;3.40;;;3.10;;
32786;SDS011;19139;49.372;8.580;2023-09-18T03:01:33;3.00;;;2.60;;
32786;SDS011;19139;49.372;8.580;2023-09-18T03:04:00;2.90;;;2.60;;
32786;SDS011;19139;49.372;8.580;2023-09-18T03:06:28;2.87;;;2.57;;
32786;SDS011;19139;49.372;8.580;2023-09-18T03:08:54;3.93;;;2.97;;
32786;SDS011;19139;49.372;8.580;2023-09-18T03:11:21;3.10;;;2.87;;
32786;SDS011;19139;49.372;8.580;2023-09-18T03:13:48;3.10;;;2.90;;
32786;SDS011;19139;49.372;8.580;2023-09-18T03:16:15;3.27;;;2.97;;
32786;SDS011;19139;49.372;8.580;2023-09-18T03:18:42;2.90;;;2.60;;
32786;SDS011;19139;49.372;8.580;2023-09-18T03:21:08;2.93;;;2.70;;
32786;SDS011;19139;49.372;8.580;2023-09-18T03:23:35;3.33;;;2.57;;
32786;SDS011;19139;49.372;8.580;2023-09-18T03:26:02;3.13;;;2.83;;
32786;SDS011;19139;49.372;8.580;2023-09-18T03:28:29;2.90;;;2.70;;
32786;SDS011;19139;49.372;8.580;2023-09-18T03:30:57;2.60;;;2.40;;
32786;SDS011;19139;49.372;8.580;2023-09-18T03:33:24;3.10;;;2.80;;
32786;SDS011;19139;49.372;8.580;2023-09-18T03:35:51;2.83;;;2.63;;
32786;SDS011;19139;49.372;8.580;2023-09-18T03:38:21;2.83;;;2.60;;
32786;SDS011;19139;49.372;8.580;2023-09-18T03:40:48;2.80;;;2.50;;
32786;SDS011;19139;49.372;8.580;2023-09-18T03:43:14;2.90;;;2.53;;
32786;SDS011;19139;49.372;8.580;2023-09-18T03:45:41;2.90;;;2.60;;
32786;SDS011;19139;49.372;8.580;2023-09-18T03:48:09;2.90;;;2.40;;
32786;SDS011;19139;49.372;8.580;2023-09-18T03:50:36;3.00;;;2.70;;
32786;SDS011;19139;49.372;8.580;2023-09-18T03:53:03;2.93;;;2.50;;
32786;SDS011;19139;49.372;8.580;2023-09-18T03:55:30;2.50;;;2.30;;
32786;SDS011;19139;49.372;8.580;2023-09-18T03:57:56;2.80;;;2.50;;
32786;SDS011;19139;49.372;8.580;2023-09-18T04:00:23;2.33;;;2.13;;
32786;SDS011;19139;49.372;8.580;2023-09-18T04:02:50;2.37;;;2.17;;
32786;SDS011;19139;49.372;8.580;2023-09-18T04:05:17;2.70;;;2.43;;
32786;SDS011;19139;49.372;8.580;2023-09-18T04:07:45;2.80;;;2.30;;
32786;SDS011;19139;49.372;8.580;2023-09-18T04:10:13;2.77;;;2.30;;
32786;SDS011;19139;49.372;8.580;2023-09-18T04:12:49;3.30;;;2.40;;
32786;SDS011;19139;49.372;8.580;2023-09-18T04:15:19;2.60;;;2.40;;
32786;SDS011;19139;49.372;8.580;2023-09-18T04:17:47;3.57;;;2.90;;
32786;SDS011;19139;49.372;8.580;2023-09-18T04:20:14;2.50;;;2.30;;
32786;SDS011;19139;49.372;8.580;2023-09-18T04:22:45;2.83;;;2.47;;
32786;SDS011;19139;49.372;8.580;2023-09-18T04:25:16;2.70;;;2.50;;
32786;SDS011;19139;49.372;8.580;2023-09-18T04:27:43;2.70;;;2.50;;
32786;SDS011;19139;49.372;8.580;2023-09-18T04:30:10;2.30;;;2.10;;
32786;SDS011;19139;49.372;8.580;2023-09-18T04:32:37;2.77;;;2.57;;
32786;SDS011;19139;49.372;8.580;2023-09-18T04:35:04;3.87;;;2.90;;
32786;SDS011;19139;49.372;8.580;2023-09-18T04:37:35;2.80;;;2.60;;
32786;SDS011;19139;49.372;8.580;2023-09-18T04:40:04;2.93;;;2.43;;
32786;SDS011;19139;49.372;8.580;2023-09-18T04:42:37;2.90;;;2.60;;
32786;SDS011;19139;49.372;8.580;2023-09-18T04:45:05;2.87;;;2.63;;
32786;SDS011;19139;49.372;8.580;2023-09-18T04:47:32;2.50;;;2.30;;
32786;SDS011;19139;49.372;8.580;2023-09-18T04:49:59;2.97;;;2.67;;
32786;SDS011;19139;49.372;8.580;2023-09-18T04:52:26;2.93;;;2.73;;
32786;SDS011;19139;49.372;8.580;2023-09-18T04:54:52;2.77;;;2.40;;
32786;SDS011;19139;49.372;8.580;2023-09-18T04:57:20;2.90;;;2.60;;
32786;SDS011;19139;49.372;8.580;2023-09-18T04:59:48;2.87;;;2.67;;
32786;SDS011;19139;49.372;8.580;2023-09-18T05:02:30;2.57;;;2.37;;
32786;SDS011;19139;49.372;8.580;2023-09-18T05:04:57;3.03;;;2.80;;
32786;SDS011;19139;49.372;8.580;2023-09-18T05:07:24;2.70;;;2.50;;
32786;SDS011;19139;49.372;8.580;2023-09-18T05:09:51;2.53;;;2.33;;
32786;SDS011;19139;49.372;8.580;2023-09-18T05:12:18;2.53;;;2.33;;
32786;SDS011;19139;49.372;8.580;2023-09-18T05:14:45;2.50;;;2.17;;
32786;SDS011;19139;49.372;8.580;2023-09-18T05:17:14;2.70;;;2.23;;
32786;SDS011;19139;49.372;8.580;2023-09-18T05:19:42;2.93;;;2.60;;
32786;SDS011;19139;49.372;8.580;2023-09-18T05:22:09;2.13;;;1.93;;
32786;SDS011;19139;49.372;8.580;2023-09-18T05:24:39;2.37;;;2.17;;
32786;SDS011;19139;49.372;8.580;2023-09-18T05:27:06;2.13;;;1.93;;
32786;SDS011;19139;49.372;8.580;2023-09-18T05:29:33;2.57;;;2.20;;
32786;SDS011;19139;49.372;8.580;2023-09-18T05:32:02;2.40;;;2.20;;
32786;SDS011;19139;49.372;8.580;2023-09-18T05:34:30;2.40;;;2.03;;
32786;SDS011;19139;49.372;8.580;2023-09-18T05:36:57;2.40;;;2.20;;
32786;SDS011;19139;49.372;8.580;2023-09-18T05:39:24;2.40;;;2.20;;
32786;SDS011;19139;49.372;8.580;2023-09-18T05:41:51;2.47;;;2.27;;
32786;SDS011;19139;49.372;8.580;2023-09-18T05:44:18;2.53;;;2.17;;
32786;SDS011;19139;49.372;8.580;2023-09-18T05:46:44;2.40;;;2.17;;
32786;SDS011;19139;49.372;8.580;2023-09-18T05:49:11;2.60;;;2.40;;
32786;SDS011;19139;49.372;8.580;2023-09-18T05:51:38;3.63;;;1.90;;
32786;SDS011;19139;49.372;8.580;2023-09-18T05:54:05;2.50;;;2.20;;
32786;SDS011;19139;49.372;8.580;2023-09-18T05:56:32;2.70;;;2.50;;
32786;SDS011;19139;49.372;8.580;2023-09-18T05:58:59;3.03;;;2.13;;
32786;SDS011;19139;49.372;8.580;2023-09-18T06:01:26;2.60;;;2.27;;
32786;SDS011;19139;49.372;8.580;2023-09-18T06:03:52;2.53;;;2.33;;
32786;SDS011;19139;49.372;8.580;2023-09-18T06:06:19;2.17;;;1.97;;
32786;SDS011;19139;49.372;8.580;2023-09-18T06:08:46;1.93;;;1.83;;
32786;SDS011;19139;49.372;8.580;2023-09-18T06:11:12;2.40;;;2.20;;
32786;SDS011;19139;49.372;8.580;2023-09-18T06:13:39;2.37;;;2.03;;
32786;SDS011;19139;49.372;8.580;2023-09-18T06:16:06;2.50;;;2.30;;
32786;SDS011;19139;49.372;8.580;2023-09-18T06:18:34;2.60;;;2.20;;
32786;SDS011;19139;49.372;8.580;2023-09-18T06:21:04;2.47;;;2.27;;
32786;SDS011;19139;49.372;8.580;2023-09-18T06:23:31;2.20;;;2.00;;
32786;SDS011;19139;49.372;8.580;2023-09-18T06:25:58;2.70;;;2.37;;
32786;SDS011;19139;49.372;8.580;2023-09-18T06:28:25;2.13;;;1.93;;
32786;SDS011;19139;49.372;8.580;2023-09-18T06:30:52;4.30;;;2.97;;
32786;SDS011;19139;49.372;8.580;2023-09-18T06:33:20;2.53;;;2.30;;
32786;SDS011;19139;49.372;8.580;2023-09-18T06:35:47;2.67;;;2.47;;
32786;SDS011;19139;49.372;8.580;2023-09-18T06:38:14;2.60;;;2.40;;
32786;SDS011;19139;49.372;8.580;2023-09-18T06:40:41;2.10;;;1.90;;
32786;SDS011;19139;49.372;8.580;2023-09-18T06:43:07;2.07;;;1.97;;
32786;SDS011;19139;49.372;8.580;2023-09-18T06:45:34;2.97;;;2.30;;
32786;SDS011;19139;49.372;8.580;2023-09-18T06:48:04;2.53;;;2.33;;
32786;SDS011;19139;49.372;8.580;2023-09-18T06:50:31;2.93;;;2.67;;
32786;SDS011;19139;49.372;8.580;2023-09-18T06:52:57;2.17;;;1.97;;
32786;SDS011;19139;49.372;8.580;2023-09-18T06:55:24;2.30;;;2.10;;
32786;SDS011;19139;49.372;8.580;2023-09-18T06:57:51;2.50;;;2.30;;
32786;SDS011;19139;49.372;8.580;2023-09-18T07:00:18;2.33;;;2.13;;
32786;SDS011;19139;49.372;8.580;2023-09-18T07:02:47;2.10;;;2.00;;
32786;SDS011;19139;49.372;8.580;2023-09-18T07:05:15;2.50;;;2.30;;
32786;SDS011;19139;49.372;8.580;2023-09-18T07:07:42;2.70;;;2.50;;
32786;SDS011;19139;49.372;8.580;2023-09-18T07:10:09;2.57;;;2.37;;
32786;SDS011;19139;49.372;8.580;2023-09-18T07:12:35;2.87;;;2.30;;
32786;SDS011;19139;49.372;8.580;2023-09-18T07:15:02;2.57;;;2.20;;
32786;SDS011;19139;49.372;8.580;2023-09-18T07:17:30;2.20;;;2.00;;
32786;SDS011;19139;49.372;8.580;2023-09-18T07:19:58;2.43;;;2.20;;
32786;SDS011;19139;49.372;8.580;2023-09-18T07:22:25;2.00;;;1.90;;
32786;SDS011;19139;49.372;8.580;2023-09-18T07:24:55;2.60;;;2.23;;
32786;SDS011;19139;49.372;8.580;2023-09-18T07:27:22;2.37;;;2.17;;
32786;SDS011;19139;49.372;8.580;2023-09-18T07:29:48;2.37;;;2.03;;
32786;SDS011;19139;49.372;8.580;2023-09-18T07:32:15;2.23;;;2.03;;
32786;SDS011;19139;49.372;8.580;2023-09-18T07:34:51;2.73;;;2.20;;
32786;SDS011;19139;49.372;8.580;2023-09-18T07:37:18;2.23;;;2.03;;
32786;SDS011;19139;49.372;8.580;2023-09-18T07:39:47;2.03;;;1.83;;
32786;SDS011;19139;49.372;8.580;2023-09-18T07:42:13;2.33;;;2.13;;
32786;SDS011;19139;49.372;8.580;2023-09-18T07:44:40;2.27;;;1.73;;
32786;SDS011;19139;49.372;8.580;2023-09-18T07:47:07;2.13;;;2.03;;
32786;SDS011;19139;49.372;8.580;2023-09-18T07:49:34;2.13;;;1.87;;
32786;SDS011;19139;49.372;8.580;2023-09-18T07:52:00;2.17;;;2.00;;
32786;SDS011;19139;49.372;8.580;2023-09-18T07:54:27;2.47;;;1.73;;
32786;SDS011;19139;49.372;8.580;2023-09-18T07:56:54;4.03;;;2.17;;
32786;SDS011;19139;49.372;8.580;2023-09-18T07:59:20;1.70;;;1.60;;
32786;SDS011;19139;49.372;8.580;2023-09-18T08:01:47;2.47;;;2.03;;
32786;SDS011;19139;49.372;8.580;2023-09-18T08:04:14;2.57;;;1.90;;
32786;SDS011;19139;49.372;8.580;2023-09-18T08:06:41;2.07;;;1.83;;
32786;SDS011;19139;49.372;8.580;2023-09-18T08:09:07;2.23;;;2.03;;
32786;SDS011;19139;49.372;8.580;2023-09-18T08:11:39;1.90;;;1.80;;
32786;SDS011;19139;49.372;8.580;2023-09-18T08:14:08;4.73;;;1.87;;
32786;SDS011;19139;49.372;8.580;2023-09-18T08:16:37;3.00;;;2.20;;
32786;SDS011;19139;49.372;8.580;2023-09-18T08:19:04;1.90;;;1.80;;
32786;SDS011;19139;49.372;8.580;2023-09-18T08:21:31;3.60;;;1.97;;
32786;SDS011;19139;49.372;8.580;2023-09-18T08:23:57;1.80;;;1.60;;
32786;SDS011;19139;49.372;8.580;2023-09-18T08:26:24;2.10;;;1.90;;
32786;SDS011;19139;49.372;8.580;2023-09-18T08:28:54;1.70;;;1.60;;
32786;SDS011;19139;49.372;8.580;2023-09-18T08:31:21;3.00;;;1.87;;
32786;SDS011;19139;49.372;8.580;2023-09-18T08:33:47;2.03;;;1.90;;
32786;SDS011;19139;49.372;8.580;2023-09-18T08:36:14;3.10;;;1.77;;
32786;SDS011;19139;49.372;8.580;2023-09-18T08:38:41;1.90;;;1.80;;
32786;SDS011;19139;49.372;8.580;2023-09-18T08:41:11;1.77;;;1.67;;
32786;SDS011;19139;49.372;8.580;2023-09-18T08:43:39;1.80;;;1.70;;
32786;SDS011;19139;49.372;8.580;2023-09-18T08:46:09;2.50;;;2.20;;
32786;SDS011;19139;49.372;8.580;2023-09-18T08:48:36;2.60;;;2.17;;
32786;SDS011;19139;49.372;8.580;2023-09-18T08:51:05;1.83;;;1.67;;
32786;SDS011;19139;49.372;8.580;2023-09-18T08:53:33;2.17;;;1.50;;
32786;SDS011;19139;49.372;8.580;2023-09-18T08:56:02;1.80;;;1.40;;
32786;SDS011;19139;49.372;8.580;2023-09-18T08:58:31;2.23;;;1.60;;
32786;SDS011;19139;49.372;8.580;2023-09-18T09:01:02;1.47;;;1.37;;
32786;SDS011;19139;49.372;8.580;2023-09-18T09:03:39;1.60;;;1.50;;
32786;SDS011;19139;49.372;8.580;2023-09-18T09:06:07;2.03;;;1.83;;
32786;SDS011;19139;49.372;8.580;2023-09-18T09:08:35;2.77;;;1.90;;
32786;SDS011;19139;49.372;8.580;2023-09-18T09:11:03;2.33;;;1.60;;
32786;SDS011;19139;49.372;8.580;2023-09-18T09:13:30;1.90;;;1.80;;
32786;SDS011;19139;49.372;8.580;2023-09-18T09:16:11;1.60;;;1.50;;
32786;SDS011;19139;49.372;8.580;2023-09-18T09:18:48;1.57;;;1.47;;
32786;SDS011;19139;49.372;8.580;2023-09-18T09:21:17;1.40;;;1.30;;
32786;SDS011;19139;49.372;8.580;2023-09-18T09:23:45;2.23;;;1.50;;
32786;SDS011;19139;49.372;8.580;2023-09-18T09:26:16;1.90;;;1.53;;
32786;SDS011;19139;49.372;8.580;2023-09-18T09:28:43;1.80;;;1.70;;
32786;SDS011;19139;49.372;8.580;2023-09-18T09:31:11;2.50;;;2.30;;
32786;SDS011;19139;49.372;8.580;2023-09-18T09:33:38;1.73;;;1.63;;
32786;SDS011;19139;49.372;8.580;2023-09-18T09:36:06;1.90;;;1.50;;
32786;SDS011;19139;49.372;8.580;2023-09-18T09:38:34;2.00;;;1.77;;
32786;SDS011;19139;49.372;8.580;2023-09-18T09:41:01;1.70;;;1.53;;
32786;SDS011;19139;49.372;8.580;2023-09-18T09:43:29;2.50;;;1.60;;
32786;SDS011;19139;49.372;8.580;2023-09-18T09:46:01;1.47;;;1.37;;
32786;SDS011;19139;49.372;8.580;2023-09-18T09:48:28;2.60;;;1.70;;
32786;SDS011;19139;49.372;8.580;2023-09-18T09:50:59;1.80;;;1.50;;
32786;SDS011;19139;49.372;8.580;2023-09-18T09:53:42;2.07;;;1.43;;
32786;SDS011;19139;49.372;8.580;2023-09-18T09:56:11;2.60;;;1.43;;
32786;SDS011;19139;49.372;8.580;2023-09-18T09:58:37;1.87;;;1.57;;
32786;SDS011;19139;49.372;8.580;2023-09-18T10:01:07;1.47;;;1.17;;
32786;SDS011;19139;49.372;8.580;2023-09-18T10:03:38;1.50;;;1.40;;
32786;SDS011;19139;49.372;8.580;2023-09-18T10:06:06;2.77;;;1.80;;
32786;SDS011;19139;49.372;8.580;2023-09-18T10:08:35;1.67;;;1.57;;
32786;SDS011;19139;49.372;8.580;2023-09-18T10:11:05;1.60;;;1.40;;
32786;SDS011;19139;49.372;8.580;2023-09-18T10:13:46;2.07;;;1.63;;
32786;SDS011;19139;49.372;8.580;2023-09-18T10:16:16;2.50;;;1.50;;
32786;SDS011;19139;49.372;8.580;2023-09-18T10:21:32;1.47;;;1.37;;
32786;SDS011;19139;49.372;8.580;2023-09-18T10:24:20;2.17;;;1.47;;
32786;SDS011;19139;49.372;8.580;2023-09-18T10:26:55;1.70;;;1.53;;
32786;SDS011;19139;49.372;8.580;2023-09-18T10:29:23;1.63;;;1.53;;
32786;SDS011;19139;49.372;8.580;2023-09-18T10:31:51;1.57;;;1.47;;
32786;SDS011;19139;49.372;8.580;2023-09-18T10:34:19;2.30;;;1.60;;
32786;SDS011;19139;49.372;8.580;2023-09-18T10:36:48;2.37;;;1.40;;
32786;SDS011;19139;49.372;8.580;2023-09-18T10:39:16;1.60;;;1.40;;
32786;SDS011;19139;49.372;8.580;2023-09-18T10:41:54;1.60;;;1.37;;
32786;SDS011;19139;49.372;8.580;2023-09-18T10:44:23;1.77;;;1.50;;
32786;SDS011;19139;49.372;8.580;2023-09-18T10:46:50;1.80;;;1.40;;
32786;SDS011;19139;49.372;8.580;2023-09-18T10:49:18;1.70;;;1.37;;
32786;SDS011;19139;49.372;8.580;2023-09-18T10:51:46;1.47;;;1.33;;
32786;SDS011;19139;49.372;8.580;2023-09-18T10:54:20;1.20;;;1.00;;
32786;SDS011;19139;49.372;8.580;2023-09-18T10:56:48;1.40;;;1.20;;
32786;SDS011;19139;49.372;8.580;2023-09-18T10:59:16;1.93;;;1.23;;
32786;SDS011;19139;49.372;8.580;2023-09-18T11:01:46;1.60;;;1.40;;
32786;SDS011;19139;49.372;8.580;2023-09-18T11:04:17;1.60;;;1.50;;
32786;SDS011;19139;49.372;8.580;2023-09-18T11:09:28;1.90;;;1.40;;
32786;SDS011;19139;49.372;8.580;2023-09-18T11:14:46;1.37;;;1.27;;
32786;SDS011;19139;49.372;8.580;2023-09-18T11:17:38;1.73;;;1.63;;
32786;SDS011;19139;49.372;8.580;2023-09-18T11:22:59;1.17;;;1.07;;
32786;SDS011;19139;49.372;8.580;2023-09-18T11:25:42;1.50;;;1.40;;
32786;SDS011;19139;49.372;8.580;2023-09-18T11:28:15;1.60;;;1.47;;
32786;SDS011;19139;49.372;8.580;2023-09-18T11:30:50;1.60;;;1.20;;
32786;SDS011;19139;49.372;8.580;2023-09-18T11:33:32;1.90;;;1.37;;
32786;SDS011;19139;49.372;8.580;2023-09-18T11:36:05;1.33;;;1.23;;
32786;SDS011;19139;49.372;8.580;2023-09-18T11:38:54;1.10;;;1.00;;
32786;SDS011;19139;49.372;8.580;2023-09-18T11:41:25;1.60;;;1.50;;
32786;SDS011;19139;49.372;8.580;2023-09-18T11:44:31;1.40;;;1.30;;
32786;SDS011;19139;49.372;8.580;2023-09-18T11:46:41;1.30;;;1.20;;
32786;SDS011;19139;49.372;8.580;2023-09-18T11:49:12;1.80;;;1.50;;
32786;SDS011;19139;49.372;8.580;2023-09-18T11:51:39;1.30;;;1.20;;
32786;SDS011;19139;49.372;8.580;2023-09-18T11:54:07;1.30;;;1.20;;
32786;SDS011;19139;49.372;8.580;2023-09-18T11:56:34;1.50;;;1.40;;
32786;SDS011;19139;49.372;8.580;2023-09-18T11:59:01;1.43;;;1.07;;
32786;SDS011;19139;49.372;8.580;2023-09-18T12:01:31;1.63;;;1.53;;
32786;SDS011;19139;49.372;8.580;2023-09-18T12:04:02;1.53;;;1.43;;
32786;SDS011;19139;49.372;8.580;2023-09-18T12:06:40;1.63;;;1.10;;
32786;SDS011;19139;49.372;8.580;2023-09-18T12:09:08;1.40;;;1.30;;
32786;SDS011;19139;49.372;8.580;2023-09-18T12:11:35;1.37;;;1.27;;
32786;SDS011;19139;49.372;8.580;2023-09-18T12:14:02;1.27;;;1.13;;
32786;SDS011;19139;49.372;8.580;2023-09-18T12:16:31;1.67;;;1.20;;
32786;SDS011;19139;49.372;8.580;2023-09-18T12:19:06;1.40;;;1.30;;
32786;SDS011;19139;49.372;8.580;2023-09-18T12:21:45;2.03;;;1.30;;
32786;SDS011;19139;49.372;8.580;2023-09-18T12:24:14;1.60;;;1.20;;
32786;SDS011;19139;49.372;8.580;2023-09-18T12:26:41;1.10;;;0.90;;
32786;SDS011;19139;49.372;8.580;2023-09-18T12:29:09;1.30;;;1.00;;
32786;SDS011;19139;49.372;8.580;2023-09-18T12:31:37;1.20;;;1.10;;
32786;SDS011;19139;49.372;8.580;2023-09-18T12:34:04;1.50;;;0.80;;
32786;SDS011;19139;49.372;8.580;2023-09-18T12:36:33;1.77;;;1.30;;
32786;SDS011;19139;49.372;8.580;2023-09-18T12:39:00;1.10;;;1.00;;
32786;SDS011;19139;49.372;8.580;2023-09-18T12:41:27;1.70;;;0.80;;
32786;SDS011;19139;49.372;8.580;2023-09-18T12:43:58;0.97;;;0.87;;
32786;SDS011;19139;49.372;8.580;2023-09-18T12:46:25;1.70;;;1.40;;
32786;SDS011;19139;49.372;8.580;2023-09-18T12:48:53;1.20;;;0.90;;
32786;SDS011;19139;49.372;8.580;2023-09-18T12:51:28;0.97;;;0.87;;
32786;SDS011;19139;49.372;8.580;2023-09-18T12:54:00;1.30;;;1.20;;
32786;SDS011;19139;49.372;8.580;2023-09-18T12:56:34;1.07;;;0.90;;
32786;SDS011;19139;49.372;8.580;2023-09-18T12:59:07;1.63;;;1.50;;
32786;SDS011;19139;49.372;8.580;2023-09-18T13:01:45;1.23;;;1.10;;
32786;SDS011;19139;49.372;8.580;2023-09-18T13:04:13;1.83;;;1.47;;
32786;SDS011;19139;49.372;8.580;2023-09-18T13:06:40;1.47;;;0.97;;
32786;SDS011;19139;49.372;8.580;2023-09-18T13:09:17;1.10;;;1.00;;
32786;SDS011;19139;49.372;8.580;2023-09-18T13:11:53;1.10;;;1.00;;
32786;SDS011;19139;49.372;8.580;2023-09-18T13:14:24;1.60;;;0.80;;
32786;SDS011;19139;49.372;8.580;2023-09-18T13:16:51;0.93;;;0.80;;
32786;SDS011;19139;49.372;8.580;2023-09-18T13:19:18;0.97;;;0.87;;
32786;SDS011;19139;49.372;8.580;2023-09-18T13:21:49;1.50;;;1.00;;
32786;SDS011;19139;49.372;8.580;2023-09-18T13:24:24;1.10;;;1.00;;
32786;SDS011;19139;49.372;8.580;2023-09-18T13:26:55;1.20;;;1.10;;
32786;SDS011;19139;49.372;8.580;2023-09-18T13:29:23;1.30;;;1.10;;
32786;SDS011;19139;49.372;8.580;2023-09-18T13:31:50;1.97;;;1.77;;
32786;SDS011;19139;49.372;8.580;2023-09-18T13:34:17;1.70;;;1.60;;
32786;SDS011;19139;49.372;8.580;2023-09-18T13:36:44;1.17;;;0.90;;
32786;SDS011;19139;49.372;8.580;2023-09-18T13:39:12;0.80;;;0.80;;
32786;SDS011;19139;49.372;8.580;2023-09-18T13:41:39;1.30;;;1.00;;
32786;SDS011;19139;49.372;8.580;2023-09-18T13:44:07;1.20;;;0.93;;
32786;SDS011;19139;49.372;8.580;2023-09-18T13:46:34;1.30;;;1.10;;
32786;SDS011;19139;49.372;8.580;2023-09-18T13:49:05;1.07;;;0.80;;
32786;SDS011;19139;49.372;8.580;2023-09-18T13:51:32;1.20;;;1.00;;
32786;SDS011;19139;49.372;8.580;2023-09-18T13:53:59;1.00;;;0.83;;
32786;SDS011;19139;49.372;8.580;2023-09-18T13:56:26;1.17;;;1.07;;
32786;SDS011;19139;49.372;8.580;2023-09-18T13:58:57;1.10;;;1.00;;
32786;SDS011;19139;49.372;8.580;2023-09-18T14:01:24;1.03;;;0.93;;
32786;SDS011;19139;49.372;8.580;2023-09-18T14:03:54;1.80;;;1.00;;
32786;SDS011;19139;49.372;8.580;2023-09-18T14:06:21;1.07;;;0.90;;
32786;SDS011;19139;49.372;8.580;2023-09-18T14:08:49;1.27;;;1.00;;
32786;SDS011;19139;49.372;8.580;2023-09-18T14:11:16;1.13;;;0.90;;
32786;SDS011;19139;49.372;8.580;2023-09-18T14:13:44;1.00;;;0.90;;
32786;SDS011;19139;49.372;8.580;2023-09-18T14:16:11;1.03;;;0.90;;
32786;SDS011;19139;49.372;8.580;2023-09-18T14:18:40;1.23;;;1.13;;
32786;SDS011;19139;49.372;8.580;2023-09-18T14:21:06;1.20;;;1.10;;
32786;SDS011;19139;49.372;8.580;2023-09-18T14:23:33;1.67;;;1.33;;
32786;SDS011;19139;49.372;8.580;2023-09-18T14:26:01;1.10;;;1.00;;
32786;SDS011;19139;49.372;8.580;2023-09-18T14:28:28;1.23;;;0.80;;
32786;SDS011;19139;49.372;8.580;2023-09-18T14:30:54;1.70;;;0.90;;
32786;SDS011;19139;49.372;8.580;2023-09-18T14:33:21;2.50;;;1.10;;
32786;SDS011;19139;49.372;8.580;2023-09-18T14:35:48;2.70;;;1.17;;
32786;SDS011;19139;49.372;8.580;2023-09-18T14:38:15;3.90;;;1.07;;
32786;SDS011;19139;49.372;8.580;2023-09-18T14:40:42;4.80;;;1.53;;
32786;SDS011;19139;49.372;8.580;2023-09-18T14:43:09;1.17;;;1.00;;
32786;SDS011;19139;49.372;8.580;2023-09-18T14:45:36;2.40;;;1.30;;
32786;SDS011;19139;49.372;8.580;2023-09-18T14:48:04;2.50;;;1.23;;
32786;SDS011;19139;49.372;8.580;2023-09-18T14:50:31;3.13;;;1.30;;
32786;SDS011;19139;49.372;8.580;2023-09-18T14:52:58;1.77;;;1.10;;
32786;SDS011;19139;49.372;8.580;2023-09-18T14:55:24;3.40;;;1.33;;
32786;SDS011;19139;49.372;8.580;2023-09-18T14:57:51;2.73;;;1.40;;
32786;SDS011;19139;49.372;8.580;2023-09-18T15:00:20;2.50;;;1.40;;
32786;SDS011;19139;49.372;8.580;2023-09-18T15:02:47;3.03;;;1.20;;
32786;SDS011;19139;49.372;8.580;2023-09-18T15:05:14;3.27;;;1.50;;
32786;SDS011;19139;49.372;8.580;2023-09-18T15:07:43;2.60;;;1.30;;
32786;SDS011;19139;49.372;8.580;2023-09-18T15:10:10;3.33;;;1.30;;